sensor_id;sensor_type;location;lat;lon;timestamp;P1;durP1;ratioP1;P2;durP2;ratioP2
73476;SDS011;61713;51.034;13.756;2022-09-21T00:01:50;8.60;;;7.43;;
73476;SDS011;61713;51.034;13.756;2022-09-21T00:04:16;9.27;;;7.67;;
73476;SDS011;61713;51.034;13.756;2022-09-21T00:06:41;9.18;;;7.65;;
73476;SDS011;61713;51.034;13.756;2022-09-21T00:09:07;9.55;;;7.75;;
73476;SDS011;61713;51.034;13.756;2022-09-21T00:11:33;9.20;;;8.17;;
73476;SDS011;61713;51.034;13.756;2022-09-21T00:14:01;8.88;;;7.97;;
73476;SDS011;61713;51.034;13.756;2022-09-21T00:16:30;10.27;;;8.40;;
73476;SDS011;61713;51.034;13.756;2022-09-21T00:18:56;8.82;;;7.93;;
73476;SDS011;61713;51.034;13.756;2022-09-21T00:21:22;9.52;;;8.13;;
73476;SDS011;61713;51.034;13.756;2022-09-21T00:23:48;8.50;;;7.57;;
73476;SDS011;61713;51.034;13.756;2022-09-21T00:26:17;9.13;;;7.87;;
73476;SDS011;61713;51.034;13.756;2022-09-21T00:28:52;9.55;;;7.68;;
73476;SDS011;61713;51.034;13.756;2022-09-21T00:31:25;11.20;;;8.88;;
73476;SDS011;61713;51.034;13.756;2022-09-21T00:33:52;8.43;;;7.32;;
73476;SDS011;61713;51.034;13.756;2022-09-21T00:36:20;8.23;;;7.18;;
73476;SDS011;61713;51.034;13.756;2022-09-21T00:38:50;6.83;;;5.90;;
73476;SDS011;61713;51.034;13.756;2022-09-21T00:41:17;7.03;;;6.20;;
73476;SDS011;61713;51.034;13.756;2022-09-21T00:44:28;9.07;;;8.02;;
73476;SDS011;61713;51.034;13.756;2022-09-21T00:46:44;8.53;;;7.60;;
73476;SDS011;61713;51.034;13.756;2022-09-21T00:49:10;9.13;;;8.23;;
73476;SDS011;61713;51.034;13.756;2022-09-21T00:51:36;9.07;;;8.18;;
73476;SDS011;61713;51.034;13.756;2022-09-21T00:54:03;9.43;;;8.07;;
73476;SDS011;61713;51.034;13.756;2022-09-21T00:56:32;10.13;;;8.27;;
73476;SDS011;61713;51.034;13.756;2022-09-21T00:59:00;9.23;;;8.30;;
73476;SDS011;61713;51.034;13.756;2022-09-21T01:01:26;11.18;;;8.63;;
73476;SDS011;61713;51.034;13.756;2022-09-21T01:03:52;8.70;;;7.80;;
73476;SDS011;61713;51.034;13.756;2022-09-21T01:06:20;8.30;;;7.50;;
73476;SDS011;61713;51.034;13.756;2022-09-21T01:08:46;9.53;;;8.53;;
73476;SDS011;61713;51.034;13.756;2022-09-21T01:11:25;9.52;;;8.52;;
73476;SDS011;61713;51.034;13.756;2022-09-21T01:14:06;10.57;;;9.02;;
73476;SDS011;61713;51.034;13.756;2022-09-21T01:22:43;11.50;;;10.30;;
73476;SDS011;61713;51.034;13.756;2022-09-21T01:25:26;12.38;;;11.13;;
73476;SDS011;61713;51.034;13.756;2022-09-21T01:30:54;14.00;;;12.50;;
73476;SDS011;61713;51.034;13.756;2022-09-21T01:33:28;16.05;;;13.68;;
73476;SDS011;61713;51.034;13.756;2022-09-21T01:36:00;15.77;;;13.17;;
73476;SDS011;61713;51.034;13.756;2022-09-21T01:39:04;16.77;;;14.93;;
73476;SDS011;61713;51.034;13.756;2022-09-21T01:41:29;16.95;;;15.15;;
73476;SDS011;61713;51.034;13.756;2022-09-21T01:43:57;16.13;;;14.02;;
73476;SDS011;61713;51.034;13.756;2022-09-21T01:46:32;17.83;;;15.77;;
73476;SDS011;61713;51.034;13.756;2022-09-21T01:49:00;17.33;;;15.15;;
73476;SDS011;61713;51.034;13.756;2022-09-21T01:51:30;18.20;;;15.23;;
73476;SDS011;61713;51.034;13.756;2022-09-21T01:54:00;18.35;;;15.27;;
73476;SDS011;61713;51.034;13.756;2022-09-21T01:56:44;17.20;;;14.45;;
73476;SDS011;61713;51.034;13.756;2022-09-21T01:59:17;19.58;;;16.25;;
73476;SDS011;61713;51.034;13.756;2022-09-21T02:01:56;19.75;;;15.50;;
73476;SDS011;61713;51.034;13.756;2022-09-21T02:04:24;21.42;;;17.20;;
73476;SDS011;61713;51.034;13.756;2022-09-21T02:06:50;20.75;;;16.38;;
73476;SDS011;61713;51.034;13.756;2022-09-21T02:09:17;20.52;;;16.70;;
73476;SDS011;61713;51.034;13.756;2022-09-21T02:11:43;18.17;;;16.27;;
73476;SDS011;61713;51.034;13.756;2022-09-21T02:14:10;20.13;;;15.77;;
73476;SDS011;61713;51.034;13.756;2022-09-21T02:16:39;16.38;;;14.50;;
73476;SDS011;61713;51.034;13.756;2022-09-21T02:19:13;11.15;;;9.60;;
73476;SDS011;61713;51.034;13.756;2022-09-21T02:24:44;20.07;;;16.87;;
73476;SDS011;61713;51.034;13.756;2022-09-21T02:30:08;20.48;;;16.77;;
73476;SDS011;61713;51.034;13.756;2022-09-21T02:35:37;19.98;;;15.05;;
73476;SDS011;61713;51.034;13.756;2022-09-21T02:41:04;17.98;;;14.27;;
73476;SDS011;61713;51.034;13.756;2022-09-21T02:43:58;18.30;;;15.02;;
73476;SDS011;61713;51.034;13.756;2022-09-21T02:46:31;15.00;;;12.30;;
73476;SDS011;61713;51.034;13.756;2022-09-21T02:49:11;13.63;;;12.13;;
73476;SDS011;61713;51.034;13.756;2022-09-21T02:51:45;12.82;;;10.90;;
73476;SDS011;61713;51.034;13.756;2022-09-21T02:54:15;13.30;;;10.60;;
73476;SDS011;61713;51.034;13.756;2022-09-21T02:56:43;9.70;;;7.60;;
73476;SDS011;61713;51.034;13.756;2022-09-21T02:59:11;8.82;;;6.93;;
73476;SDS011;61713;51.034;13.756;2022-09-21T03:01:38;8.70;;;6.53;;
73476;SDS011;61713;51.034;13.756;2022-09-21T03:04:04;10.83;;;8.73;;
73476;SDS011;61713;51.034;13.756;2022-09-21T03:06:29;9.35;;;7.25;;
73476;SDS011;61713;51.034;13.756;2022-09-21T03:08:55;8.70;;;7.80;;
73476;SDS011;61713;51.034;13.756;2022-09-21T03:11:22;9.25;;;8.32;;
73476;SDS011;61713;51.034;13.756;2022-09-21T03:13:48;6.43;;;5.77;;
73476;SDS011;61713;51.034;13.756;2022-09-21T03:16:13;9.47;;;7.80;;
73476;SDS011;61713;51.034;13.756;2022-09-21T03:18:39;10.13;;;6.70;;
73476;SDS011;61713;51.034;13.756;2022-09-21T03:21:06;8.57;;;5.55;;
73476;SDS011;61713;51.034;13.756;2022-09-21T03:23:31;7.87;;;6.33;;
73476;SDS011;61713;51.034;13.756;2022-09-21T03:25:56;7.97;;;5.67;;
73476;SDS011;61713;51.034;13.756;2022-09-21T03:28:22;6.90;;;5.70;;
73476;SDS011;61713;51.034;13.756;2022-09-21T03:30:48;8.40;;;5.53;;
73476;SDS011;61713;51.034;13.756;2022-09-21T03:33:15;7.45;;;5.72;;
73476;SDS011;61713;51.034;13.756;2022-09-21T03:35:41;6.47;;;5.70;;
73476;SDS011;61713;51.034;13.756;2022-09-21T03:38:06;7.72;;;5.90;;
73476;SDS011;61713;51.034;13.756;2022-09-21T03:40:32;7.63;;;5.63;;
73476;SDS011;61713;51.034;13.756;2022-09-21T03:42:58;8.57;;;5.85;;
73476;SDS011;61713;51.034;13.756;2022-09-21T03:45:24;8.75;;;6.35;;
73476;SDS011;61713;51.034;13.756;2022-09-21T03:47:51;8.52;;;6.43;;
73476;SDS011;61713;51.034;13.756;2022-09-21T03:50:22;8.27;;;6.30;;
73476;SDS011;61713;51.034;13.756;2022-09-21T03:52:50;8.32;;;6.30;;
73476;SDS011;61713;51.034;13.756;2022-09-21T03:55:16;8.00;;;6.13;;
73476;SDS011;61713;51.034;13.756;2022-09-21T03:57:41;9.20;;;5.80;;
73476;SDS011;61713;51.034;13.756;2022-09-21T04:00:07;7.93;;;5.60;;
73476;SDS011;61713;51.034;13.756;2022-09-21T04:02:34;8.32;;;6.10;;
73476;SDS011;61713;51.034;13.756;2022-09-21T04:05:01;9.13;;;6.45;;
73476;SDS011;61713;51.034;13.756;2022-09-21T04:07:29;7.13;;;5.82;;
73476;SDS011;61713;51.034;13.756;2022-09-21T04:09:58;8.27;;;6.20;;
73476;SDS011;61713;51.034;13.756;2022-09-21T04:12:24;8.90;;;6.20;;
73476;SDS011;61713;51.034;13.756;2022-09-21T04:14:49;8.30;;;6.57;;
73476;SDS011;61713;51.034;13.756;2022-09-21T04:17:15;8.70;;;6.40;;
73476;SDS011;61713;51.034;13.756;2022-09-21T04:19:40;9.60;;;6.80;;
73476;SDS011;61713;51.034;13.756;2022-09-21T04:22:06;10.63;;;6.93;;
73476;SDS011;61713;51.034;13.756;2022-09-21T04:24:32;9.75;;;6.43;;
73476;SDS011;61713;51.034;13.756;2022-09-21T04:26:57;9.57;;;6.57;;
73476;SDS011;61713;51.034;13.756;2022-09-21T04:29:23;8.10;;;6.73;;
73476;SDS011;61713;51.034;13.756;2022-09-21T04:31:48;9.10;;;7.00;;
73476;SDS011;61713;51.034;13.756;2022-09-21T04:34:14;8.17;;;7.30;;
73476;SDS011;61713;51.034;13.756;2022-09-21T04:36:39;8.63;;;6.73;;
73476;SDS011;61713;51.034;13.756;2022-09-21T04:39:05;8.57;;;7.30;;
73476;SDS011;61713;51.034;13.756;2022-09-21T04:41:30;9.13;;;7.50;;
73476;SDS011;61713;51.034;13.756;2022-09-21T04:43:56;9.18;;;7.68;;
73476;SDS011;61713;51.034;13.756;2022-09-21T04:46:21;9.07;;;7.60;;
73476;SDS011;61713;51.034;13.756;2022-09-21T04:48:47;11.53;;;8.00;;
73476;SDS011;61713;51.034;13.756;2022-09-21T04:51:14;10.90;;;8.15;;
73476;SDS011;61713;51.034;13.756;2022-09-21T04:53:41;10.77;;;8.30;;
73476;SDS011;61713;51.034;13.756;2022-09-21T04:56:08;11.38;;;8.45;;
73476;SDS011;61713;51.034;13.756;2022-09-21T04:58:36;9.52;;;8.35;;
73476;SDS011;61713;51.034;13.756;2022-09-21T05:01:02;11.30;;;8.73;;
73476;SDS011;61713;51.034;13.756;2022-09-21T05:03:30;10.80;;;8.90;;
73476;SDS011;61713;51.034;13.756;2022-09-21T05:05:55;11.10;;;8.23;;
73476;SDS011;61713;51.034;13.756;2022-09-21T05:08:22;10.93;;;8.10;;
73476;SDS011;61713;51.034;13.756;2022-09-21T05:11:09;11.05;;;8.90;;
73476;SDS011;61713;51.034;13.756;2022-09-21T05:13:40;11.07;;;8.48;;
73476;SDS011;61713;51.034;13.756;2022-09-21T05:16:06;10.83;;;8.50;;
73476;SDS011;61713;51.034;13.756;2022-09-21T05:18:32;10.77;;;7.50;;
73476;SDS011;61713;51.034;13.756;2022-09-21T05:20:58;10.27;;;8.18;;
73476;SDS011;61713;51.034;13.756;2022-09-21T05:23:25;9.95;;;8.45;;
73476;SDS011;61713;51.034;13.756;2022-09-21T05:25:53;10.55;;;8.50;;
73476;SDS011;61713;51.034;13.756;2022-09-21T05:28:19;10.63;;;8.63;;
73476;SDS011;61713;51.034;13.756;2022-09-21T05:30:45;10.32;;;8.55;;
73476;SDS011;61713;51.034;13.756;2022-09-21T05:33:19;11.15;;;8.57;;
73476;SDS011;61713;51.034;13.756;2022-09-21T05:38:36;10.43;;;8.52;;
73476;SDS011;61713;51.034;13.756;2022-09-21T05:41:02;10.90;;;8.63;;
73476;SDS011;61713;51.034;13.756;2022-09-21T05:43:28;9.80;;;8.73;;
73476;SDS011;61713;51.034;13.756;2022-09-21T05:48:57;12.32;;;9.65;;
73476;SDS011;61713;51.034;13.756;2022-09-21T05:51:28;13.18;;;8.68;;
73476;SDS011;61713;51.034;13.756;2022-09-21T05:54:14;10.88;;;8.82;;
73476;SDS011;61713;51.034;13.756;2022-09-21T05:57:03;11.47;;;8.40;;
73476;SDS011;61713;51.034;13.756;2022-09-21T06:05:40;8.38;;;7.45;;
73476;SDS011;61713;51.034;13.756;2022-09-21T06:08:06;11.23;;;7.82;;
73476;SDS011;61713;51.034;13.756;2022-09-21T06:10:32;9.53;;;8.03;;
73476;SDS011;61713;51.034;13.756;2022-09-21T06:12:59;10.27;;;7.65;;
73476;SDS011;61713;51.034;13.756;2022-09-21T06:15:24;9.93;;;8.03;;
73476;SDS011;61713;51.034;13.756;2022-09-21T06:17:50;9.10;;;7.53;;
73476;SDS011;61713;51.034;13.756;2022-09-21T06:20:15;9.67;;;7.60;;
73476;SDS011;61713;51.034;13.756;2022-09-21T06:22:41;9.38;;;7.43;;
73476;SDS011;61713;51.034;13.756;2022-09-21T06:25:07;9.55;;;7.38;;
73476;SDS011;61713;51.034;13.756;2022-09-21T06:27:33;8.93;;;7.43;;
73476;SDS011;61713;51.034;13.756;2022-09-21T06:29:58;11.07;;;7.70;;
73476;SDS011;61713;51.034;13.756;2022-09-21T06:32:24;8.40;;;7.10;;
73476;SDS011;61713;51.034;13.756;2022-09-21T06:34:49;12.53;;;7.83;;
73476;SDS011;61713;51.034;13.756;2022-09-21T06:37:14;8.60;;;7.70;;
73476;SDS011;61713;51.034;13.756;2022-09-21T06:39:40;9.20;;;7.70;;
73476;SDS011;61713;51.034;13.756;2022-09-21T06:42:06;12.30;;;8.63;;
73476;SDS011;61713;51.034;13.756;2022-09-21T06:44:31;10.30;;;7.63;;
73476;SDS011;61713;51.034;13.756;2022-09-21T06:46:57;10.87;;;8.07;;
73476;SDS011;61713;51.034;13.756;2022-09-21T06:49:22;9.37;;;7.43;;
73476;SDS011;61713;51.034;13.756;2022-09-21T06:51:48;8.50;;;6.88;;
73476;SDS011;61713;51.034;13.756;2022-09-21T06:54:13;9.45;;;7.28;;
73476;SDS011;61713;51.034;13.756;2022-09-21T06:56:39;12.20;;;7.47;;
73476;SDS011;61713;51.034;13.756;2022-09-21T06:59:07;9.85;;;7.43;;
73476;SDS011;61713;51.034;13.756;2022-09-21T07:01:32;10.98;;;8.13;;
73476;SDS011;61713;51.034;13.756;2022-09-21T07:03:58;8.97;;;7.20;;
73476;SDS011;61713;51.034;13.756;2022-09-21T07:06:24;9.18;;;7.78;;
73476;SDS011;61713;51.034;13.756;2022-09-21T07:08:52;8.38;;;7.07;;
73476;SDS011;61713;51.034;13.756;2022-09-21T07:11:18;8.95;;;7.20;;
73476;SDS011;61713;51.034;13.756;2022-09-21T07:13:43;9.50;;;7.45;;
73476;SDS011;61713;51.034;13.756;2022-09-21T07:16:09;10.95;;;7.38;;
73476;SDS011;61713;51.034;13.756;2022-09-21T07:18:36;10.00;;;7.20;;
73476;SDS011;61713;51.034;13.756;2022-09-21T07:21:04;9.35;;;6.72;;
73476;SDS011;61713;51.034;13.756;2022-09-21T07:23:31;9.95;;;6.57;;
73476;SDS011;61713;51.034;13.756;2022-09-21T07:26:00;10.10;;;7.32;;
73476;SDS011;61713;51.034;13.756;2022-09-21T07:28:33;9.93;;;7.00;;
73476;SDS011;61713;51.034;13.756;2022-09-21T07:31:10;10.30;;;7.00;;
73476;SDS011;61713;51.034;13.756;2022-09-21T07:33:37;9.82;;;6.65;;
73476;SDS011;61713;51.034;13.756;2022-09-21T07:36:04;9.18;;;6.80;;
73476;SDS011;61713;51.034;13.756;2022-09-21T07:38:37;8.27;;;7.10;;
73476;SDS011;61713;51.034;13.756;2022-09-21T07:41:05;9.38;;;6.93;;
73476;SDS011;61713;51.034;13.756;2022-09-21T07:43:31;7.75;;;6.50;;
73476;SDS011;61713;51.034;13.756;2022-09-21T07:45:57;8.70;;;6.60;;
73476;SDS011;61713;51.034;13.756;2022-09-21T07:48:25;10.15;;;6.97;;
73476;SDS011;61713;51.034;13.756;2022-09-21T07:50:52;8.90;;;5.63;;
73476;SDS011;61713;51.034;13.756;2022-09-21T07:53:18;7.72;;;5.70;;
73476;SDS011;61713;51.034;13.756;2022-09-21T07:55:45;8.30;;;5.27;;
73476;SDS011;61713;51.034;13.756;2022-09-21T07:58:10;6.93;;;5.63;;
73476;SDS011;61713;51.034;13.756;2022-09-21T08:00:54;6.13;;;5.40;;
73476;SDS011;61713;51.034;13.756;2022-09-21T08:03:20;8.63;;;6.35;;
73476;SDS011;61713;51.034;13.756;2022-09-21T08:05:45;9.23;;;5.90;;
73476;SDS011;61713;51.034;13.756;2022-09-21T08:08:11;7.90;;;5.37;;
73476;SDS011;61713;51.034;13.756;2022-09-21T08:10:37;8.30;;;5.20;;
73476;SDS011;61713;51.034;13.756;2022-09-21T08:13:03;6.40;;;5.63;;
73476;SDS011;61713;51.034;13.756;2022-09-21T08:15:30;7.90;;;6.15;;
73476;SDS011;61713;51.034;13.756;2022-09-21T08:17:55;8.40;;;5.53;;
73476;SDS011;61713;51.034;13.756;2022-09-21T08:20:22;6.57;;;5.43;;
73476;SDS011;61713;51.034;13.756;2022-09-21T08:22:48;7.72;;;5.38;;
73476;SDS011;61713;51.034;13.756;2022-09-21T08:25:14;6.60;;;5.03;;
73476;SDS011;61713;51.034;13.756;2022-09-21T08:27:39;8.30;;;5.80;;
73476;SDS011;61713;51.034;13.756;2022-09-21T08:30:06;7.68;;;5.53;;
73476;SDS011;61713;51.034;13.756;2022-09-21T08:32:32;8.98;;;5.70;;
73476;SDS011;61713;51.034;13.756;2022-09-21T08:34:58;6.88;;;6.00;;
73476;SDS011;61713;51.034;13.756;2022-09-21T08:37:24;7.40;;;5.53;;
73476;SDS011;61713;51.034;13.756;2022-09-21T08:39:49;6.47;;;5.70;;
73476;SDS011;61713;51.034;13.756;2022-09-21T08:42:21;6.47;;;5.45;;
73476;SDS011;61713;51.034;13.756;2022-09-21T08:45:07;8.38;;;5.25;;
73476;SDS011;61713;51.034;13.756;2022-09-21T08:47:41;7.22;;;4.93;;
73476;SDS011;61713;51.034;13.756;2022-09-21T08:50:22;7.47;;;5.20;;
73476;SDS011;61713;51.034;13.756;2022-09-21T08:53:16;7.68;;;5.32;;
73476;SDS011;61713;51.034;13.756;2022-09-21T08:55:54;7.70;;;5.45;;
73476;SDS011;61713;51.034;13.756;2022-09-21T08:58:21;6.85;;;4.60;;
73476;SDS011;61713;51.034;13.756;2022-09-21T09:00:50;6.70;;;5.00;;
73476;SDS011;61713;51.034;13.756;2022-09-21T09:09:13;6.13;;;3.63;;
73476;SDS011;61713;51.034;13.756;2022-09-21T09:15:07;6.03;;;3.70;;
73476;SDS011;61713;51.034;13.756;2022-09-21T09:17:49;6.85;;;3.97;;
73476;SDS011;61713;51.034;13.756;2022-09-21T09:25:35;7.78;;;3.47;;
73476;SDS011;61713;51.034;13.756;2022-09-21T09:28:14;5.75;;;3.47;;
73476;SDS011;61713;51.034;13.756;2022-09-21T09:30:41;4.95;;;2.95;;
73476;SDS011;61713;51.034;13.756;2022-09-21T09:33:21;4.88;;;3.20;;
73476;SDS011;61713;51.034;13.756;2022-09-21T09:38:35;5.13;;;3.33;;
73476;SDS011;61713;51.034;13.756;2022-09-21T09:41:20;4.38;;;2.88;;
73476;SDS011;61713;51.034;13.756;2022-09-21T09:46:40;4.20;;;2.60;;
73476;SDS011;61713;51.034;13.756;2022-09-21T09:49:29;4.05;;;2.58;;
73476;SDS011;61713;51.034;13.756;2022-09-21T09:52:17;3.35;;;2.40;;
73476;SDS011;61713;51.034;13.756;2022-09-21T09:54:43;3.78;;;2.15;;
73476;SDS011;61713;51.034;13.756;2022-09-21T09:57:09;4.53;;;2.27;;
73476;SDS011;61713;51.034;13.756;2022-09-21T09:59:54;5.20;;;2.70;;
73476;SDS011;61713;51.034;13.756;2022-09-21T10:02:24;5.03;;;2.88;;
73476;SDS011;61713;51.034;13.756;2022-09-21T10:04:54;4.10;;;2.30;;
73476;SDS011;61713;51.034;13.756;2022-09-21T10:07:37;3.65;;;2.10;;
73476;SDS011;61713;51.034;13.756;2022-09-21T10:10:47;4.28;;;2.05;;
73476;SDS011;61713;51.034;13.756;2022-09-21T10:15:42;3.47;;;2.08;;
73476;SDS011;61713;51.034;13.756;2022-09-21T10:18:34;4.35;;;2.10;;
73476;SDS011;61713;51.034;13.756;2022-09-21T10:23:51;3.03;;;1.88;;
73476;SDS011;61713;51.034;13.756;2022-09-21T10:26:20;3.90;;;2.20;;
73476;SDS011;61713;51.034;13.756;2022-09-21T10:31:24;3.30;;;1.92;;
73476;SDS011;61713;51.034;13.756;2022-09-21T10:33:53;3.50;;;1.83;;
73476;SDS011;61713;51.034;13.756;2022-09-21T10:36:39;3.65;;;1.98;;
73476;SDS011;61713;51.034;13.756;2022-09-21T10:41:48;2.78;;;1.70;;
73476;SDS011;61713;51.034;13.756;2022-09-21T10:44:17;3.35;;;1.80;;
73476;SDS011;61713;51.034;13.756;2022-09-21T10:46:45;2.13;;;1.80;;
73476;SDS011;61713;51.034;13.756;2022-09-21T10:49:16;3.17;;;1.70;;
73476;SDS011;61713;51.034;13.756;2022-09-21T10:51:46;2.72;;;1.80;;
73476;SDS011;61713;51.034;13.756;2022-09-21T10:56:58;2.13;;;1.50;;
73476;SDS011;61713;51.034;13.756;2022-09-21T10:59:28;3.45;;;1.65;;
73476;SDS011;61713;51.034;13.756;2022-09-21T11:01:56;3.47;;;1.90;;
73476;SDS011;61713;51.034;13.756;2022-09-21T11:07:16;2.90;;;1.73;;
73476;SDS011;61713;51.034;13.756;2022-09-21T11:10:01;2.80;;;1.60;;
73476;SDS011;61713;51.034;13.756;2022-09-21T11:12:46;2.72;;;1.67;;
73476;SDS011;61713;51.034;13.756;2022-09-21T11:18:21;2.28;;;1.40;;
73476;SDS011;61713;51.034;13.756;2022-09-21T11:20:58;3.78;;;1.77;;
73476;SDS011;61713;51.034;13.756;2022-09-21T11:27:13;3.77;;;1.50;;
73476;SDS011;61713;51.034;13.756;2022-09-21T11:32:37;2.83;;;1.40;;
73476;SDS011;61713;51.034;13.756;2022-09-21T11:41:31;2.50;;;1.30;;
73476;SDS011;61713;51.034;13.756;2022-09-21T11:47:35;1.40;;;1.20;;
73476;SDS011;61713;51.034;13.756;2022-09-21T11:52:46;2.17;;;1.48;;
73476;SDS011;61713;51.034;13.756;2022-09-21T11:55:21;2.67;;;1.50;;
73476;SDS011;61713;51.034;13.756;2022-09-21T11:58:15;3.00;;;1.67;;
73476;SDS011;61713;51.034;13.756;2022-09-21T12:04:10;2.42;;;1.65;;
73476;SDS011;61713;51.034;13.756;2022-09-21T12:07:08;2.40;;;1.60;;
73476;SDS011;61713;51.034;13.756;2022-09-21T12:12:33;3.00;;;1.40;;
73476;SDS011;61713;51.034;13.756;2022-09-21T12:23:11;3.58;;;2.22;;
73476;SDS011;61713;51.034;13.756;2022-09-21T12:25:43;2.55;;;1.70;;
73476;SDS011;61713;51.034;13.756;2022-09-21T12:28:19;4.00;;;1.75;;
73476;SDS011;61713;51.034;13.756;2022-09-21T12:31:00;2.40;;;1.50;;
73476;SDS011;61713;51.034;13.756;2022-09-21T12:33:33;2.63;;;1.60;;
73476;SDS011;61713;51.034;13.756;2022-09-21T12:36:07;2.13;;;1.30;;
73476;SDS011;61713;51.034;13.756;2022-09-21T12:38:42;1.83;;;1.30;;
73476;SDS011;61713;51.034;13.756;2022-09-21T12:41:35;3.30;;;1.98;;
73476;SDS011;61713;51.034;13.756;2022-09-21T12:44:33;3.05;;;1.55;;
73476;SDS011;61713;51.034;13.756;2022-09-21T12:47:16;2.53;;;1.63;;
73476;SDS011;61713;51.034;13.756;2022-09-21T12:49:48;2.63;;;1.55;;
73476;SDS011;61713;51.034;13.756;2022-09-21T12:52:21;2.80;;;1.40;;
73476;SDS011;61713;51.034;13.756;2022-09-21T13:00:13;2.95;;;1.40;;
73476;SDS011;61713;51.034;13.756;2022-09-21T13:03:03;2.35;;;1.48;;
73476;SDS011;61713;51.034;13.756;2022-09-21T13:05:38;2.00;;;1.20;;
73476;SDS011;61713;51.034;13.756;2022-09-21T13:08:38;2.33;;;1.38;;
73476;SDS011;61713;51.034;13.756;2022-09-21T13:11:08;2.38;;;1.40;;
73476;SDS011;61713;51.034;13.756;2022-09-21T13:16:05;2.08;;;1.20;;
73476;SDS011;61713;51.034;13.756;2022-09-21T13:18:45;2.07;;;1.23;;
73476;SDS011;61713;51.034;13.756;2022-09-21T13:21:30;2.03;;;1.35;;
73476;SDS011;61713;51.034;13.756;2022-09-21T13:24:04;2.83;;;1.30;;
73476;SDS011;61713;51.034;13.756;2022-09-21T13:26:35;2.90;;;1.50;;
73476;SDS011;61713;51.034;13.756;2022-09-21T13:29:28;2.80;;;1.50;;
73476;SDS011;61713;51.034;13.756;2022-09-21T13:34:48;3.33;;;1.65;;
73476;SDS011;61713;51.034;13.756;2022-09-21T13:47:52;2.63;;;1.50;;
73476;SDS011;61713;51.034;13.756;2022-09-21T13:52:57;2.90;;;1.60;;
73476;SDS011;61713;51.034;13.756;2022-09-21T13:55:27;2.47;;;1.30;;
73476;SDS011;61713;51.034;13.756;2022-09-21T13:57:56;1.90;;;1.40;;
73476;SDS011;61713;51.034;13.756;2022-09-21T14:03:32;2.75;;;1.58;;
73476;SDS011;61713;51.034;13.756;2022-09-21T14:06:18;2.60;;;1.17;;
73476;SDS011;61713;51.034;13.756;2022-09-21T14:08:57;1.73;;;1.20;;
73476;SDS011;61713;51.034;13.756;2022-09-21T14:11:30;3.35;;;1.35;;
73476;SDS011;61713;51.034;13.756;2022-09-21T14:24:34;2.60;;;1.40;;
73476;SDS011;61713;51.034;13.756;2022-09-21T14:27:13;2.08;;;1.30;;
73476;SDS011;61713;51.034;13.756;2022-09-21T14:32:17;2.53;;;1.40;;
73476;SDS011;61713;51.034;13.756;2022-09-21T14:34:47;2.55;;;1.52;;
73476;SDS011;61713;51.034;13.756;2022-09-21T14:37:40;2.90;;;1.45;;
73476;SDS011;61713;51.034;13.756;2022-09-21T14:40:24;1.73;;;1.33;;
73476;SDS011;61713;51.034;13.756;2022-09-21T14:42:53;3.25;;;1.42;;
73476;SDS011;61713;51.034;13.756;2022-09-21T14:45:23;2.97;;;1.42;;
73476;SDS011;61713;51.034;13.756;2022-09-21T14:51:21;2.50;;;1.57;;
73476;SDS011;61713;51.034;13.756;2022-09-21T14:56:50;3.53;;;2.03;;
73476;SDS011;61713;51.034;13.756;2022-09-21T15:02:16;2.28;;;1.88;;
73476;SDS011;61713;51.034;13.756;2022-09-21T15:13:40;3.17;;;1.85;;
73476;SDS011;61713;51.034;13.756;2022-09-21T15:16:34;2.67;;;1.95;;
73476;SDS011;61713;51.034;13.756;2022-09-21T15:19:11;2.40;;;2.00;;
73476;SDS011;61713;51.034;13.756;2022-09-21T15:24:47;2.00;;;1.70;;
73476;SDS011;61713;51.034;13.756;2022-09-21T15:27:18;3.20;;;2.00;;
73476;SDS011;61713;51.034;13.756;2022-09-21T15:29:53;2.80;;;2.00;;
73476;SDS011;61713;51.034;13.756;2022-09-21T15:32:23;2.65;;;2.00;;
73476;SDS011;61713;51.034;13.756;2022-09-21T15:35:03;3.75;;;2.42;;
73476;SDS011;61713;51.034;13.756;2022-09-21T15:37:35;3.90;;;2.30;;
73476;SDS011;61713;51.034;13.756;2022-09-21T15:40:14;3.00;;;2.33;;
73476;SDS011;61713;51.034;13.756;2022-09-21T15:43:01;2.83;;;2.30;;
73476;SDS011;61713;51.034;13.756;2022-09-21T15:45:33;4.22;;;2.25;;
73476;SDS011;61713;51.034;13.756;2022-09-21T15:48:22;2.78;;;2.08;;
73476;SDS011;61713;51.034;13.756;2022-09-21T15:50:51;3.63;;;2.47;;
73476;SDS011;61713;51.034;13.756;2022-09-21T15:53:24;3.35;;;2.47;;
73476;SDS011;61713;51.034;13.756;2022-09-21T15:55:54;3.13;;;2.40;;
73476;SDS011;61713;51.034;13.756;2022-09-21T15:58:22;4.70;;;2.30;;
73476;SDS011;61713;51.034;13.756;2022-09-21T16:00:59;3.40;;;2.45;;
73476;SDS011;61713;51.034;13.756;2022-09-21T16:03:26;3.88;;;2.25;;
73476;SDS011;61713;51.034;13.756;2022-09-21T16:05:53;3.90;;;2.20;;
73476;SDS011;61713;51.034;13.756;2022-09-21T16:08:27;3.53;;;2.50;;
73476;SDS011;61713;51.034;13.756;2022-09-21T16:13:38;4.75;;;3.00;;
73476;SDS011;61713;51.034;13.756;2022-09-21T16:16:23;5.90;;;2.90;;
73476;SDS011;61713;51.034;13.756;2022-09-21T16:18:49;4.00;;;2.60;;
73476;SDS011;61713;51.034;13.756;2022-09-21T16:21:18;4.20;;;2.63;;
73476;SDS011;61713;51.034;13.756;2022-09-21T16:24:17;3.55;;;2.70;;
73476;SDS011;61713;51.034;13.756;2022-09-21T16:26:57;4.72;;;3.72;;
73476;SDS011;61713;51.034;13.756;2022-09-21T16:29:26;3.80;;;2.70;;
73476;SDS011;61713;51.034;13.756;2022-09-21T16:32:18;3.80;;;3.00;;
73476;SDS011;61713;51.034;13.756;2022-09-21T16:34:47;4.87;;;3.50;;
73476;SDS011;61713;51.034;13.756;2022-09-21T16:39:48;6.20;;;4.85;;
73476;SDS011;61713;51.034;13.756;2022-09-21T16:42:14;6.22;;;4.70;;
73476;SDS011;61713;51.034;13.756;2022-09-21T16:44:40;5.55;;;4.80;;
73476;SDS011;61713;51.034;13.756;2022-09-21T16:47:21;6.47;;;5.15;;
73476;SDS011;61713;51.034;13.756;2022-09-21T16:49:52;11.53;;;6.63;;
73476;SDS011;61713;51.034;13.756;2022-09-21T16:52:19;6.68;;;5.53;;
73476;SDS011;61713;51.034;13.756;2022-09-21T16:54:45;6.68;;;5.90;;
73476;SDS011;61713;51.034;13.756;2022-09-21T16:57:13;9.15;;;6.32;;
73476;SDS011;61713;51.034;13.756;2022-09-21T16:59:38;8.23;;;6.53;;
73476;SDS011;61713;51.034;13.756;2022-09-21T17:02:04;8.20;;;7.03;;
73476;SDS011;61713;51.034;13.756;2022-09-21T17:04:31;9.27;;;7.95;;
73476;SDS011;61713;51.034;13.756;2022-09-21T17:06:58;10.32;;;8.45;;
73476;SDS011;61713;51.034;13.756;2022-09-21T17:09:25;11.00;;;9.50;;
73476;SDS011;61713;51.034;13.756;2022-09-21T17:11:56;13.60;;;11.63;;
73476;SDS011;61713;51.034;13.756;2022-09-21T17:14:25;11.50;;;10.30;;
73476;SDS011;61713;51.034;13.756;2022-09-21T17:16:59;10.98;;;9.65;;
73476;SDS011;61713;51.034;13.756;2022-09-21T17:19:27;11.20;;;10.00;;
73476;SDS011;61713;51.034;13.756;2022-09-21T17:21:56;10.38;;;9.27;;
73476;SDS011;61713;51.034;13.756;2022-09-21T17:24:23;10.60;;;9.50;;
73476;SDS011;61713;51.034;13.756;2022-09-21T17:26:50;10.52;;;8.90;;
73476;SDS011;61713;51.034;13.756;2022-09-21T17:29:20;10.97;;;8.87;;
73476;SDS011;61713;51.034;13.756;2022-09-21T17:31:47;14.13;;;11.85;;
73476;SDS011;61713;51.034;13.756;2022-09-21T17:34:17;11.17;;;10.07;;
73476;SDS011;61713;51.034;13.756;2022-09-21T17:36:44;15.77;;;13.27;;
73476;SDS011;61713;51.034;13.756;2022-09-21T17:39:10;12.80;;;11.47;;
73476;SDS011;61713;51.034;13.756;2022-09-21T17:41:37;11.13;;;10.03;;
73476;SDS011;61713;51.034;13.756;2022-09-21T17:44:13;12.25;;;10.85;;